createdAt,value
2022-10-24T00:02:12.482Z,98587.69
2022-10-24T00:04:42.658Z,98592.75
2022-10-24T00:07:11.487Z,98584.44
2022-10-24T00:09:40.347Z,98591.13
2022-10-24T00:12:10.792Z,98589.19
2022-10-24T00:14:39.960Z,98595.34
2022-10-24T00:17:08.636Z,98600.50
2022-10-24T00:19:37.373Z,98604.56
2022-10-24T00:22:06.286Z,98617.69
2022-10-24T00:24:34.891Z,98610.69
2022-10-24T00:27:03.542Z,98609.94
2022-10-24T00:29:33.667Z,98608.78
2022-10-24T00:32:02.313Z,98599.16
2022-10-24T00:34:31.017Z,98589.22
2022-10-24T00:36:59.681Z,98610.19
2022-10-24T00:39:28.288Z,98606.97
2022-10-24T00:41:59.039Z,98604.84
2022-10-24T00:44:31.083Z,98592.16
2022-10-24T00:47:06.238Z,98598.38
2022-10-24T00:49:46.735Z,98601.03
2022-10-24T00:52:19.401Z,98603.41
2022-10-24T00:54:49.295Z,98599.38
2022-10-24T00:57:25.925Z,98595.34
2022-10-24T01:00:01.597Z,98597.78
2022-10-24T01:02:31.702Z,98598.28
2022-10-24T01:05:01.080Z,98596.69
2022-10-24T01:07:51.802Z,98591.34
2022-10-24T01:10:39.790Z,98591.88
2022-10-24T01:13:23.833Z,98598.59
2022-10-24T01:16:04.726Z,98614.72
2022-10-24T01:18:44.201Z,98602.56
2022-10-24T01:21:30.040Z,98609.28
2022-10-24T01:24:33.467Z,98603.09
2022-10-24T01:27:41.144Z,98598.22
2022-10-24T01:30:14.065Z,98590.19
2022-10-24T01:32:55.232Z,98584.00
2022-10-24T01:35:37.163Z,98573.78
2022-10-24T01:38:17.903Z,98572.50
2022-10-24T01:40:54.480Z,98567.66
2022-10-24T01:43:29.730Z,98570.09
2022-10-24T01:46:05.903Z,98562.84
2022-10-24T01:48:41.740Z,98561.47
2022-10-24T01:51:14.159Z,98562.81
2022-10-24T01:53:45.356Z,98570.09
2022-10-24T01:56:13.943Z,98565.22
2022-10-24T01:58:42.708Z,98557.97
2022-10-24T02:01:19.689Z,98555.28
2022-10-24T02:03:54.358Z,98565.22
2022-10-24T02:06:31.390Z,98559.56
2022-10-24T02:09:08.241Z,98553.13
2022-10-24T02:11:38.396Z,98554.75
2022-10-24T02:14:15.263Z,98556.63
2022-10-24T02:16:46.687Z,98549.63
2022-10-24T02:19:16.851Z,98555.81
2022-10-24T02:21:54.225Z,98557.94
2022-10-24T02:24:30.515Z,98556.63
2022-10-24T02:27:06.010Z,98554.41
2022-10-24T02:29:44.075Z,98542.34
2022-10-24T02:32:21.165Z,98543.97
2022-10-24T02:34:51.028Z,98540.19
2022-10-24T02:37:21.392Z,98529.16
2022-10-24T02:39:52.502Z,98527.78
2022-10-24T02:42:24.055Z,98535.03
2022-10-24T02:44:53.795Z,98531.53
2022-10-24T02:47:27.974Z,98534.25
2022-10-24T02:49:57.303Z,98524.56
2022-10-24T02:52:26.646Z,98539.06
2022-10-24T02:54:55.282Z,98535.28
2022-10-24T02:57:26.712Z,98530.72
2022-10-24T02:59:55.355Z,98546.34
2022-10-24T03:02:25.794Z,98551.72
2022-10-24T03:04:54.679Z,98547.16
2022-10-24T03:07:23.331Z,98554.13
2022-10-24T03:09:51.978Z,98565.38
2022-10-24T03:12:20.923Z,98566.47
2022-10-24T03:14:49.834Z,98558.66
2022-10-24T03:17:18.570Z,98560.56
2022-10-24T03:19:48.634Z,98555.19
2022-10-24T03:22:17.196Z,98562.16
2022-10-24T03:24:55.255Z,98562.66
2022-10-24T03:27:24.685Z,98567.78
2022-10-24T03:29:53.270Z,98564.31
2022-10-24T03:32:22.104Z,98561.59
2022-10-24T03:34:52.161Z,98561.56
2022-10-24T03:37:21.114Z,98561.50
2022-10-24T03:39:51.167Z,98562.63
2022-10-24T03:42:19.841Z,98565.84
2022-10-24T03:44:48.632Z,98574.97
2022-10-24T03:47:17.435Z,98563.44
2022-10-24T03:49:46.112Z,98573.03
2022-10-24T03:52:16.178Z,98572.69
2022-10-24T03:54:45.112Z,98566.00
2022-10-24T03:57:13.911Z,98568.41
2022-10-24T03:59:42.624Z,98572.16
2022-10-24T04:02:11.844Z,98573.28
2022-10-24T04:04:40.484Z,98576.75
2022-10-24T04:07:09.292Z,98577.84
2022-10-24T04:09:39.642Z,98575.66
2022-10-24T04:12:08.498Z,98571.94
2022-10-24T04:14:37.123Z,98586.19
2022-10-24T04:17:05.928Z,98576.25
2022-10-24T04:19:35.041Z,98588.88
2022-10-24T04:22:03.691Z,98595.84
2022-10-24T04:24:32.716Z,98596.91
2022-10-24T04:27:02.804Z,98604.97
2022-10-24T04:29:31.723Z,98609.28
2022-10-24T04:32:00.525Z,98606.28
2022-10-24T04:34:29.201Z,98604.13
2022-10-24T04:36:57.884Z,98605.44
2022-10-24T04:39:26.505Z,98600.28
2022-10-24T04:41:55.108Z,98608.00
2022-10-24T04:44:25.180Z,98597.25
2022-10-24T04:46:53.897Z,98601.03
2022-10-24T04:49:22.467Z,98601.03
2022-10-24T04:51:51.098Z,98601.97
2022-10-24T04:54:19.813Z,98607.91
2022-10-24T04:56:48.662Z,98593.47
2022-10-24T04:59:17.420Z,98590.19
2022-10-24T05:01:47.559Z,98594.53
2022-10-24T05:04:16.377Z,98591.53
2022-10-24T05:06:45.296Z,98595.59
2022-10-24T05:09:14.211Z,98592.38
2022-10-24T05:11:43.151Z,98596.09
2022-10-24T05:14:11.991Z,98603.09
2022-10-24T05:16:40.825Z,98605.78
2022-10-24T05:19:10.824Z,98610.63
2022-10-24T05:21:39.418Z,98599.56
2022-10-24T05:24:08.691Z,98599.31
2022-10-24T05:26:37.387Z,98603.59
2022-10-24T05:31:39.560Z,98585.28
2022-10-24T05:34:08.427Z,98582.88
2022-10-24T05:36:38.574Z,98575.63
2022-10-24T05:39:07.855Z,98568.38
2022-10-24T05:41:37.316Z,98575.69
2022-10-24T05:44:06.442Z,98586.16
2022-10-24T05:46:35.088Z,98590.22
2022-10-24T05:49:03.719Z,98604.41
2022-10-24T05:51:32.446Z,98597.75
2022-10-24T05:54:02.807Z,98589.69
2022-10-24T05:56:32.120Z,98595.06
2022-10-24T05:59:00.815Z,98597.16
2022-10-24T06:01:29.516Z,98608.44
2022-10-24T06:03:58.503Z,98600.41
2022-10-24T06:06:27.919Z,98603.06
2022-10-24T06:08:56.562Z,98589.06
2022-10-24T06:11:26.560Z,98598.50
2022-10-24T06:14:47.596Z,98598.28
2022-10-24T06:17:16.277Z,98610.91
2022-10-24T06:19:45.309Z,98606.38
2022-10-24T06:22:14.468Z,98605.31
2022-10-24T06:24:43.259Z,98602.09
2022-10-24T06:27:15.756Z,98608.56
2022-10-24T06:29:45.788Z,98599.91
2022-10-24T06:32:16.025Z,98595.13
2022-10-24T06:34:46.560Z,98599.41
2022-10-24T06:37:17.002Z,98600.28
2022-10-24T06:39:46.045Z,98608.09
2022-10-24T06:42:16.770Z,98612.44
2022-10-24T06:44:45.521Z,98606.28
2022-10-24T06:47:14.719Z,98612.69
2022-10-24T06:49:47.206Z,98619.72
2022-10-24T06:52:19.045Z,98614.13
2022-10-24T06:55:18.402Z,98619.50
2022-10-24T06:57:48.927Z,98620.63
2022-10-24T07:00:18.877Z,98623.66
2022-10-24T07:02:47.986Z,98628.19
2022-10-24T07:05:17.190Z,98631.50
2022-10-24T07:07:46.578Z,98636.06
2022-10-24T07:10:17.173Z,98630.75
2022-10-24T07:12:47.668Z,98635.09
2022-10-24T07:15:16.718Z,98632.97
2022-10-24T07:17:46.649Z,98624.94
2022-10-24T07:20:16.601Z,98624.47
2022-10-24T07:22:46.770Z,98624.81
2022-10-24T07:25:17.004Z,98625.66
2022-10-24T07:27:47.082Z,98630.25
2022-10-24T07:30:20.286Z,98630.53
2022-10-24T07:32:50.002Z,98628.13
2022-10-24T07:35:18.717Z,98630.28
2022-10-24T07:37:47.712Z,98625.47
2022-10-24T07:40:17.859Z,98638.38
2022-10-24T07:42:49.571Z,98637.06
2022-10-24T07:45:18.925Z,98625.50
2022-10-24T07:47:48.752Z,98623.66
2022-10-24T07:50:18.141Z,98631.47
2022-10-24T07:52:47.424Z,98626.69
2022-10-24T07:55:16.604Z,98623.47
2022-10-24T07:57:46.153Z,98618.91
2022-10-24T08:00:20.723Z,98618.38
2022-10-24T08:05:23.263Z,98620.81
2022-10-24T08:07:56.254Z,98610.06
2022-10-24T08:10:34.353Z,98615.47
2022-10-24T08:13:03.205Z,98610.09
2022-10-24T08:15:33.312Z,98613.84
2022-10-24T08:18:02.235Z,98610.63
2022-10-24T08:20:31.236Z,98616.28
2022-10-24T08:23:00.139Z,98619.25
2022-10-24T08:25:28.892Z,98621.16
2022-10-24T08:27:57.692Z,98621.44
2022-10-24T08:30:26.531Z,98623.63
2022-10-24T08:32:56.484Z,98623.63
2022-10-24T08:35:25.889Z,98610.97
2022-10-24T08:37:54.545Z,98615.50
2022-10-24T08:40:23.149Z,98616.88
2022-10-24T08:42:52.505Z,98604.72
2022-10-24T08:45:30.211Z,98612.81
2022-10-24T08:48:08.189Z,98606.06
2022-10-24T08:50:38.320Z,98611.47
2022-10-24T08:53:14.526Z,98610.66
2022-10-24T08:55:50.617Z,98610.13
2022-10-24T08:58:26.958Z,98604.69
2022-10-24T09:00:59.375Z,98607.66
2022-10-24T09:03:54.887Z,98603.06
2022-10-24T09:06:30.078Z,98607.91
2022-10-24T09:09:03.122Z,98603.06
2022-10-24T09:11:47.657Z,98606.28
2022-10-24T09:14:19.965Z,98599.56
2022-10-24T09:16:57.802Z,98602.50
2022-10-24T09:19:31.131Z,98592.22
2022-10-24T09:22:02.586Z,98601.69
2022-10-24T09:24:42.734Z,98591.69
2022-10-24T09:27:19.064Z,98593.31
2022-10-24T09:29:47.953Z,98584.13
2022-10-24T09:32:21.524Z,98598.97
2022-10-24T09:34:52.402Z,98594.91
2022-10-24T09:37:44.322Z,98592.19
2022-10-24T09:40:21.959Z,98604.59
2022-10-24T09:42:59.825Z,98615.09
2022-10-24T09:45:39.124Z,98618.00
2022-10-24T09:48:24.571Z,98607.78
2022-10-24T09:50:58.248Z,98611.50
2022-10-24T09:53:31.132Z,98601.19
2022-10-24T09:56:07.653Z,98603.59
2022-10-24T09:58:36.520Z,98592.50
2022-10-24T10:01:08.985Z,98596.25
2022-10-24T10:03:37.744Z,98584.91
2022-10-24T10:06:19.030Z,98573.53
2022-10-24T10:08:54.619Z,98578.38
2022-10-24T10:11:31.608Z,98583.19
2022-10-24T10:14:04.001Z,98581.59
2022-10-24T10:16:37.722Z,98577.50
2022-10-24T10:19:19.416Z,98584.81
2022-10-24T10:22:00.293Z,98568.59
2022-10-24T10:24:39.956Z,98587.50
2022-10-24T10:27:43.420Z,98594.56
2022-10-24T10:30:23.082Z,98583.19
2022-10-24T10:33:12.767Z,98585.91
2022-10-24T10:35:52.118Z,98585.91
2022-10-24T10:38:44.228Z,98595.38
2022-10-24T10:41:30.149Z,98575.72
2022-10-24T10:44:21.089Z,98576.78
2022-10-24T10:47:03.050Z,98583.84
2022-10-24T10:49:37.680Z,98584.41
2022-10-24T10:52:13.542Z,98570.91
2022-10-24T10:55:16.475Z,98558.72
2022-10-24T10:57:55.335Z,98538.75
2022-10-24T11:00:36.430Z,98523.91
2022-10-24T11:03:30.753Z,98501.75
2022-10-24T11:06:19.675Z,98501.22
2022-10-24T11:09:29.927Z,98510.94
2022-10-24T11:12:12.092Z,98503.63
2022-10-24T11:14:46.795Z,98533.34
2022-10-24T11:17:24.762Z,98533.34
2022-10-24T11:20:08.958Z,98511.25
2022-10-24T11:22:46.908Z,98530.44
2022-10-24T11:25:27.307Z,98525.03
2022-10-24T11:28:08.916Z,98534.75
2022-10-24T11:30:52.073Z,98541.00
2022-10-24T11:33:27.193Z,98543.94
2022-10-24T11:36:12.466Z,98549.63
2022-10-24T11:38:51.177Z,98531.53
2022-10-24T11:41:41.333Z,98529.66
2022-10-24T11:44:41.040Z,98526.41
2022-10-24T11:47:41.110Z,98537.19
2022-10-24T11:50:25.863Z,98551.78
2022-10-24T11:53:01.574Z,98562.63
2022-10-24T11:55:39.210Z,98559.69
2022-10-24T11:58:16.795Z,98554.81
2022-10-24T12:01:25.314Z,98548.88
2022-10-24T12:05:02.019Z,98539.69
2022-10-24T12:08:35.107Z,98533.19
2022-10-24T12:11:21.523Z,98542.38
2022-10-24T12:14:22.928Z,98559.09
2022-10-24T12:17:36.736Z,98567.19
2022-10-24T12:20:12.892Z,98570.97
2022-10-24T12:22:45.587Z,98568.78
2022-10-24T12:25:29.917Z,98563.97
2022-10-24T12:28:02.596Z,98566.66
2022-10-24T12:30:34.920Z,98569.88
2022-10-24T12:33:25.928Z,98564.19
2022-10-24T12:35:57.370Z,98569.34
2022-10-24T12:39:09.613Z,98565.25
2022-10-24T12:41:45.660Z,98563.13
2022-10-24T12:44:42.491Z,98553.66
2022-10-24T12:47:35.741Z,98561.47
2022-10-24T12:51:01.603Z,98557.13
2022-10-24T12:54:02.297Z,98544.16
2022-10-24T12:56:32.474Z,98544.16
2022-10-24T12:59:05.678Z,98541.44
2022-10-24T13:01:37.884Z,98539.31
2022-10-24T13:04:56.727Z,98538.50
2022-10-24T13:07:50.904Z,98540.91
2022-10-24T13:10:45.957Z,98535.22
2022-10-24T13:13:39.090Z,98536.59
2022-10-24T13:16:26.371Z,98537.41
2022-10-24T13:19:17.130Z,98533.84
2022-10-24T13:21:50.614Z,98539.50
2022-10-24T13:24:35.307Z,98548.66
2022-10-24T13:27:29.575Z,98543.78
2022-10-24T13:30:33.916Z,98545.63
2022-10-24T13:33:42.923Z,98549.38
2022-10-24T13:36:20.510Z,98552.91
2022-10-24T13:38:56.216Z,98560.72
2022-10-24T13:41:35.761Z,98567.44
2022-10-24T13:44:15.751Z,98566.94
2022-10-24T13:46:54.497Z,98571.25
2022-10-24T13:49:32.698Z,98565.84
2022-10-24T13:52:10.424Z,98569.34
2022-10-24T13:54:40.548Z,98563.94
2022-10-24T13:57:29.726Z,98555.84
2022-10-24T14:00:02.304Z,98553.94
2022-10-24T14:02:43.946Z,98551.53
2022-10-24T14:05:32.768Z,98548.00
2022-10-24T14:08:04.458Z,98545.88
2022-10-24T14:10:34.422Z,98554.03
2022-10-24T14:13:05.418Z,98558.59
2022-10-24T14:15:36.462Z,98555.66
2022-10-24T14:18:15.034Z,98563.78
2022-10-24T14:20:45.864Z,98565.13
2022-10-24T14:23:29.902Z,98569.22
2022-10-24T14:26:03.910Z,98555.19
2022-10-24T14:28:40.453Z,98556.28
2022-10-24T14:31:24.192Z,98553.03
2022-10-24T14:33:57.788Z,98561.13
2022-10-24T14:36:33.194Z,98573.84
2022-10-24T14:39:07.008Z,98570.06
2022-10-24T14:41:42.315Z,98559.56
2022-10-24T14:44:18.424Z,98571.72
2022-10-24T14:46:49.025Z,98573.09
2022-10-24T14:49:33.932Z,98574.75
2022-10-24T14:52:13.366Z,98578.78
2022-10-24T14:54:52.077Z,98582.59
2022-10-24T14:57:24.054Z,98588.88
2022-10-24T14:59:57.478Z,98582.09
2022-10-24T15:02:31.296Z,98580.78
2022-10-24T15:05:30.223Z,98577.00
2022-10-24T15:08:22.549Z,98584.56
2022-10-24T15:11:05.838Z,98595.38
2022-10-24T15:13:48.090Z,98585.91
2022-10-24T15:16:35.406Z,98585.69
2022-10-24T15:19:07.145Z,98590.00
2022-10-24T15:21:41.403Z,98585.19
2022-10-24T15:24:23.509Z,98594.34
2022-10-24T15:26:52.879Z,98601.38
2022-10-24T15:29:24.602Z,98599.50
2022-10-24T15:31:54.774Z,98601.41
2022-10-24T15:34:27.264Z,98596.53
2022-10-24T15:36:57.849Z,98600.88
2022-10-24T15:39:27.157Z,98596.03
2022-10-24T15:41:56.993Z,98596.56
2022-10-24T15:44:29.507Z,98604.13
2022-10-24T15:46:59.795Z,98608.47
2022-10-24T15:49:29.322Z,98609.00
2022-10-24T15:51:59.741Z,98614.16
2022-10-24T15:54:29.450Z,98616.56
2022-10-24T15:57:01.521Z,98615.47
2022-10-24T15:59:33.630Z,98612.25
2022-10-24T16:02:04.549Z,98613.88
2022-10-24T16:04:35.098Z,98614.44
2022-10-24T16:07:04.062Z,98616.03
2022-10-24T16:09:32.828Z,98616.03
2022-10-24T16:12:01.552Z,98611.75
2022-10-24T16:14:31.001Z,98618.22
2022-10-24T16:17:00.410Z,98617.41
2022-10-24T16:19:30.480Z,98619.53
2022-10-24T16:22:01.102Z,98618.50
2022-10-24T16:24:30.765Z,98619.31
2022-10-24T16:26:59.523Z,98618.75
2022-10-24T16:29:28.586Z,98619.03
2022-10-24T16:31:57.342Z,98618.78
2022-10-24T16:34:26.120Z,98627.38
2022-10-24T16:36:56.770Z,98619.84
2022-10-24T16:39:25.572Z,98618.50
2022-10-24T16:41:56.054Z,98627.38
2022-10-24T16:44:24.768Z,98627.38
2022-10-24T16:46:55.049Z,98636.53
2022-10-24T16:49:24.362Z,98629.81
2022-10-24T16:51:53.157Z,98626.03
2022-10-24T16:54:23.427Z,98630.09
2022-10-24T16:56:54.157Z,98634.38
2022-10-24T16:59:23.203Z,98630.56
2022-10-24T17:01:52.210Z,98627.88
2022-10-24T17:04:21.089Z,98638.38
2022-10-24T17:06:49.789Z,98640.25
2022-10-24T17:09:18.837Z,98639.16
2022-10-24T17:11:49.764Z,98649.41
2022-10-24T17:14:23.771Z,98642.66
2022-10-24T17:16:53.037Z,98649.41
2022-10-24T17:19:22.979Z,98634.03
2022-10-24T17:21:57.297Z,98635.38
2022-10-24T17:24:28.045Z,98635.91
2022-10-24T17:26:59.345Z,98630.78
2022-10-24T17:29:31.953Z,98621.91
2022-10-24T17:32:03.263Z,98627.25
2022-10-24T17:34:33.671Z,98625.91
2022-10-24T17:37:20.016Z,98625.63
2022-10-24T17:39:53.567Z,98636.38
2022-10-24T17:42:35.850Z,98628.81
2022-10-24T17:45:07.941Z,98632.31
2022-10-24T17:47:38.432Z,98628.00
2022-10-24T17:50:11.016Z,98629.91
2022-10-24T17:52:42.275Z,98630.44
2022-10-24T17:55:40.993Z,98636.84
2022-10-24T17:58:13.652Z,98641.41
2022-10-24T18:00:46.370Z,98645.97
2022-10-24T18:03:16.445Z,98641.16
2022-10-24T18:05:45.463Z,98644.38
2022-10-24T18:08:17.753Z,98640.88
2022-10-24T18:10:46.964Z,98650.81
2022-10-24T18:13:19.503Z,98645.69
2022-10-24T18:15:48.733Z,98647.59
2022-10-24T18:18:18.719Z,98644.34
2022-10-24T18:20:48.200Z,98647.84
2022-10-24T18:23:17.720Z,98650.50
2022-10-24T18:25:47.042Z,98652.91
2022-10-24T18:28:17.969Z,98652.34
2022-10-24T18:30:51.967Z,98642.63
2022-10-24T18:33:23.853Z,98653.09
2022-10-24T18:35:54.848Z,98649.88
2022-10-24T18:38:24.994Z,98656.84
2022-10-24T18:40:54.708Z,98654.69
2022-10-24T18:43:47.455Z,98669.47
2022-10-24T18:46:19.238Z,98674.22
2022-10-24T18:48:49.134Z,98675.56
2022-10-24T18:51:32.126Z,98675.81
2022-10-24T18:54:07.406Z,98676.91
2022-10-24T18:56:40.006Z,98676.38
2022-10-24T18:59:16.010Z,98674.19
2022-10-24T19:01:56.857Z,98663.72
2022-10-24T19:04:27.707Z,98670.97
2022-10-24T19:07:04.072Z,98668.28
2022-10-24T19:09:33.095Z,98668.53
2022-10-24T19:12:03.478Z,98675.19
2022-10-24T19:14:34.361Z,98673.03
2022-10-24T19:17:04.414Z,98670.06
2022-10-24T19:20:00.619Z,98670.34
2022-10-24T19:22:31.742Z,98667.31
2022-10-24T19:25:00.631Z,98677.25
2022-10-24T19:27:39.119Z,98672.69
2022-10-24T19:30:12.133Z,98672.41
2022-10-24T19:32:41.085Z,98677.47
2022-10-24T19:35:10.152Z,98677.41
2022-10-24T19:37:38.828Z,98684.44
2022-10-24T19:40:09.789Z,98686.91
2022-10-24T19:42:38.876Z,98683.97
2022-10-24T19:45:10.147Z,98682.09
2022-10-24T19:47:41.166Z,98687.16
2022-10-24T19:50:12.718Z,98691.16
2022-10-24T19:52:41.793Z,98684.44
2022-10-24T19:55:10.865Z,98694.94
2022-10-24T19:57:39.695Z,98690.63
2022-10-24T20:00:12.128Z,98685.78
2022-10-24T20:02:41.956Z,98684.69
2022-10-24T20:05:11.169Z,98689.25
2022-10-24T20:07:40.162Z,98689.19
2022-10-24T20:10:09.851Z,98682.78
2022-10-24T20:12:40.990Z,98683.00
2022-10-24T20:15:13.797Z,98680.28
2022-10-24T20:17:42.784Z,98686.44
2022-10-24T20:20:13.699Z,98692.56
2022-10-24T20:22:43.150Z,98692.88
2022-10-24T20:25:11.974Z,98691.22
2022-10-24T20:27:42.056Z,98691.00
2022-10-24T20:30:14.154Z,98689.34
2022-10-24T20:32:43.240Z,98693.13
2022-10-24T20:35:12.156Z,98694.94
2022-10-24T20:37:41.195Z,98682.88
2022-10-24T20:40:13.073Z,98689.56
2022-10-24T20:42:42.881Z,98685.31
2022-10-24T20:45:13.401Z,98692.03
2022-10-24T20:47:42.619Z,98688.53
2022-10-24T20:50:12.344Z,98688.22
2022-10-24T20:52:41.293Z,98690.94
2022-10-24T20:55:19.753Z,98689.34
2022-10-24T20:57:59.445Z,98693.28
2022-10-24T21:00:29.939Z,98690.34
2022-10-24T21:02:59.110Z,98691.38
2022-10-24T21:05:29.243Z,98698.41
2022-10-24T21:07:58.079Z,98701.03
2022-10-24T21:10:28.173Z,98696.75
2022-10-24T21:12:57.109Z,98697.78
2022-10-24T21:15:26.112Z,98688.69
2022-10-24T21:17:56.631Z,98694.53
2022-10-24T21:20:25.665Z,98693.41
2022-10-24T21:22:58.713Z,98687.03
2022-10-24T21:25:27.725Z,98693.47
2022-10-24T21:27:57.257Z,98692.31
2022-10-24T21:30:26.598Z,98695.06
2022-10-24T21:32:56.855Z,98696.69
2022-10-24T21:35:26.298Z,98693.94
2022-10-24T21:37:56.101Z,98695.56
2022-10-24T21:40:24.974Z,98700.94
2022-10-24T21:42:54.356Z,98700.31
2022-10-24T21:45:23.072Z,98694.91
2022-10-24T21:47:51.765Z,98701.13
2022-10-24T21:50:22.624Z,98699.19
2022-10-24T21:52:51.474Z,98700.78
2022-10-24T21:55:20.157Z,98706.97
2022-10-24T21:57:49.451Z,98704.28
2022-10-24T22:00:18.457Z,98706.69
2022-10-24T22:02:47.853Z,98703.22
2022-10-24T22:05:17.417Z,98705.78
2022-10-24T22:07:49.704Z,98695.22
2022-10-24T22:10:18.695Z,98705.66
2022-10-24T22:12:47.355Z,98701.28
2022-10-24T22:15:16.124Z,98708.59
2022-10-24T22:17:44.964Z,98706.09
2022-10-24T22:20:13.889Z,98707.78
2022-10-24T22:22:42.653Z,98709.09
2022-10-24T22:25:12.997Z,98709.59
2022-10-24T22:27:43.325Z,98711.91
2022-10-24T22:30:13.390Z,98719.03
2022-10-24T22:32:42.600Z,98717.75
2022-10-24T22:35:13.127Z,98722.31
2022-10-24T22:37:42.501Z,98726.19
2022-10-24T22:40:24.895Z,98731.06
2022-10-24T22:42:54.579Z,98725.94
2022-10-24T22:45:25.188Z,98728.31
2022-10-24T22:48:21.353Z,98731.56
2022-10-24T22:50:53.444Z,98726.69
2022-10-24T22:53:25.249Z,98725.47
2022-10-24T22:56:12.964Z,98729.63
2022-10-24T22:58:43.995Z,98732.56
2022-10-24T23:01:28.888Z,98725.00
2022-10-24T23:04:25.033Z,98728.50
2022-10-24T23:06:59.432Z,98728.50
2022-10-24T23:09:28.168Z,98731.91
2022-10-24T23:11:59.303Z,98736.31
2022-10-24T23:14:28.914Z,98743.94
2022-10-24T23:17:00.992Z,98748.22
2022-10-24T23:19:32.878Z,98748.22
2022-10-24T23:23:09.443Z,98746.63
2022-10-24T23:25:57.126Z,98762.34
2022-10-24T23:28:41.319Z,98768.69
2022-10-24T23:31:11.070Z,98765.84
2022-10-24T23:33:40.582Z,98760.22
2022-10-24T23:36:23.920Z,98760.75
2022-10-24T23:38:56.026Z,98769.97
2022-10-24T23:41:25.515Z,98765.50
2022-10-24T23:43:56.797Z,98769.00
2022-10-24T23:46:34.260Z,98772.19
2022-10-24T23:49:26.077Z,98775.03
2022-10-24T23:52:05.327Z,98775.94
2022-10-24T23:54:35.240Z,98783.13
2022-10-24T23:57:14.708Z,98774.53
2022-10-24T23:59:45.198Z,98779.59
